Time;durP1;ratioP1;P1;durP2;ratioP2;P2;SDS_P1;SDS_P2;PMS_P1;PMS_P2;Temp;Humidity;BMP_temperature;BMP_pressure;BME280_temperature;BME280_humidity;BME280_pressure;Samples;Min_cycle;Max_cycle;Signal;HPM_P1;HPM_P2
2022/10/27 00:01:18;;;;;;;0.00;0.00;;;;;;;14.59;72.45;100117.75;7360378;19;20018;-56
2022/10/27 00:03:44;;;;;;;0.00;0.00;;;;;;;14.66;72.92;100119.19;7359030;19;20010;-59
2022/10/27 00:06:09;;;;;;;0.00;0.00;;;;;;;14.68;72.73;100127.84;7360045;19;20022;-59
2022/10/27 00:08:36;;;;;;;0.00;0.00;;;;;;;14.73;72.60;100144.22;7357562;19;20074;-58
2022/10/27 00:11:04;;;;;;;0.00;0.00;;;;;;;14.74;73.26;100143.28;7359569;19;20033;-59
2022/10/27 00:13:30;;;;;;;0.00;0.00;;;;;;;14.63;74.05;100131.63;7357023;19;20010;-59
2022/10/27 00:15:56;;;;;;;0.00;0.00;;;;;;;14.71;74.31;100146.09;7359557;19;20421;-58
2022/10/27 00:18:21;;;;;;;0.08;0.08;;;;;;;14.70;74.58;100141.78;7357622;19;20037;-58
2022/10/27 00:20:57;;;;;;;0.10;0.10;;;;;;;14.73;74.61;100141.59;7358597;19;20007;-58
2022/10/27 00:23:22;;;;;;;0.10;0.10;;;;;;;14.69;75.32;100142.66;7357261;19;20064;-58
2022/10/27 00:25:52;;;;;;;0.00;0.00;;;;;;;14.59;75.17;100125.66;7357937;19;21375;-59
2022/10/27 00:28:17;;;;;;;0.10;0.10;;;;;;;14.66;75.21;100136.72;7359170;19;20024;-59
2022/10/27 00:30:43;;;;;;;0.00;0.00;;;;;;;14.63;75.36;100142.13;7358998;19;23826;-58
2022/10/27 00:33:08;;;;;;;0.10;0.10;;;;;;;14.60;75.64;100137.88;7357870;19;20019;-57
2022/10/27 00:35:35;;;;;;;0.00;0.00;;;;;;;14.45;75.75;100122.81;7356741;19;20015;-58
2022/10/27 00:38:01;;;;;;;0.08;0.08;;;;;;;14.54;75.95;100132.91;7358823;19;20007;-58
2022/10/27 00:40:26;;;;;;;0.00;0.00;;;;;;;14.47;76.33;100134.97;7359037;19;22497;-57
2022/10/27 00:42:51;;;;;;;0.08;0.08;;;;;;;14.49;76.50;100138.38;7357097;19;20022;-58
2022/10/27 00:45:17;;;;;;;0.10;0.10;;;;;;;14.46;76.37;100138.50;7358723;19;20019;-58
2022/10/27 00:47:43;;;;;;;0.00;0.00;;;;;;;14.37;76.06;100130.22;7357675;19;20022;-60
2022/10/27 00:50:15;;;;;;;0.08;0.08;;;;;;;14.42;75.70;100143.97;7357498;19;20045;-60
2022/10/27 00:52:57;;;;;;;0.00;0.00;;;;;;;14.41;75.81;100142.28;7357654;19;20027;-58
2022/10/27 00:55:32;;;;;;;0.00;0.00;;;;;;;14.39;75.10;100154.63;7356382;19;20014;-56
2022/10/27 00:58:01;;;;;;;0.00;0.00;;;;;;;14.36;75.71;100160.03;7357684;19;20018;-58
2022/10/27 01:00:27;;;;;;;0.10;0.10;;;;;;;14.23;75.13;100144.81;7355853;19;20014;-59
2022/10/27 01:02:53;;;;;;;0.00;0.00;;;;;;;14.30;75.66;100161.16;7361468;19;20006;-57
2022/10/27 01:05:24;;;;;;;0.10;0.10;;;;;;;14.31;75.90;100156.78;7364344;19;20017;-59
2022/10/27 01:07:51;;;;;;;0.05;0.05;;;;;;;14.26;76.05;100157.81;7364336;19;20014;-58
2022/10/27 01:10:17;;;;;;;0.10;0.10;;;;;;;14.26;76.39;100160.47;7364992;19;20560;-58
2022/10/27 01:12:44;;;;;;;0.10;0.10;;;;;;;14.11;76.15;100134.91;7360938;19;20021;-59
2022/10/27 01:15:10;;;;;;;0.10;0.10;;;;;;;14.14;76.09;100140.03;7363656;19;20014;-59
2022/10/27 01:18:00;;;;;;;0.00;0.00;;;;;;;14.25;75.72;100157.91;7362881;19;20477;-58
2022/10/27 01:20:49;;;;;;;0.00;0.00;;;;;;;14.23;75.07;100160.59;7362925;19;20019;-59
2022/10/27 01:23:33;;;;;;;0.00;0.00;;;;;;;14.19;75.78;100159.03;7363513;19;20010;-57
2022/10/27 01:26:09;;;;;;;0.00;0.00;;;;;;;14.20;75.83;100149.41;7362404;19;20014;-57
2022/10/27 01:28:41;;;;;;;0.00;0.00;;;;;;;14.17;75.33;100155.63;7363790;19;20442;-58
2022/10/27 01:31:10;;;;;;;0.00;0.00;;;;;;;14.19;75.17;100156.41;7365444;19;20010;-60
2022/10/27 01:34:14;;;;;;;0.10;0.10;;;;;;;14.20;74.94;100166.00;7359415;19;20035;-61
2022/10/27 01:37:00;;;;;;;0.00;0.00;;;;;;;14.19;75.07;100155.53;7256402;19;2004239;-58
2022/10/27 01:39:57;;;;;;;0.00;0.00;;;;;;;14.19;75.63;100147.66;7365224;19;20090;-58
2022/10/27 01:42:45;;;;;;;0.00;0.00;;;;;;;14.12;75.51;100147.09;7261593;19;2004270;-58
2022/10/27 01:45:14;;;;;;;0.10;0.10;;;;;;;14.17;75.65;100158.25;7261134;19;2004450;-58
2022/10/27 01:47:39;;;;;;;0.00;0.00;;;;;;;14.17;76.07;100153.00;7363579;19;20015;-59
2022/10/27 01:50:06;;;;;;;0.00;0.00;;;;;;;14.18;76.05;100159.09;7362381;19;22556;-58
2022/10/27 01:52:47;;;;;;;0.00;0.00;;;;;;;14.21;75.49;100151.94;7361557;19;20033;-58
2022/10/27 01:55:28;;;;;;;0.00;0.00;;;;;;;14.22;76.11;100143.13;7361970;19;20006;-58
2022/10/27 01:58:11;;;;;;;0.10;0.10;;;;;;;14.26;75.24;100136.81;7353442;19;20109;-58
2022/10/27 02:01:04;;;;;;;0.00;0.00;;;;;;;14.28;75.08;100131.47;7361039;19;20024;-58
2022/10/27 02:03:56;;;;;;;0.00;0.00;;;;;;;14.30;75.65;100129.66;7258662;19;2004249;-58
2022/10/27 02:06:39;;;;;;;0.00;0.00;;;;;;;14.38;75.27;100126.66;7258925;19;2004274;-57
2022/10/27 02:09:07;;;;;;;0.00;0.00;;;;;;;14.40;75.57;100122.19;7360026;19;20018;-58
2022/10/27 02:11:36;;;;;;;0.10;0.10;;;;;;;14.28;75.75;100095.56;7362695;19;20893;-58
2022/10/27 02:14:02;;;;;;;0.00;0.00;;;;;;;14.46;75.66;100119.28;7358107;19;20480;-58
2022/10/27 02:16:31;;;;;;;0.00;0.00;;;;;;;14.47;75.77;100102.56;7360051;19;20073;-58
2022/10/27 02:19:19;;;;;;;0.00;0.00;;;;;;;14.57;75.07;100103.84;7361292;19;20031;-58
2022/10/27 02:21:48;;;;;;;0.10;0.10;;;;;;;14.57;75.55;100106.50;7358099;19;20740;-58
2022/10/27 02:24:14;;;;;;;0.10;0.10;;;;;;;14.60;75.11;100098.47;7361160;19;20030;-59
2022/10/27 02:26:50;;;;;;;0.00;0.00;;;;;;;14.65;75.10;100096.47;7360285;19;20459;-58
2022/10/27 02:29:21;;;;;;;0.00;0.00;;;;;;;14.70;75.12;100086.59;7358443;19;20010;-58
2022/10/27 02:31:51;;;;;;;0.10;0.10;;;;;;;14.75;75.22;100083.69;7360244;19;20013;-57
2022/10/27 02:34:17;;;;;;;0.10;0.10;;;;;;;14.74;75.04;100067.06;7360656;19;20022;-56
2022/10/27 02:36:42;;;;;;;0.00;0.00;;;;;;;14.84;75.15;100082.38;7359264;19;20014;-58
2022/10/27 02:39:08;;;;;;;0.00;0.00;;;;;;;14.87;75.08;100072.59;7360954;19;20013;-58
2022/10/27 02:41:33;;;;;;;0.10;0.10;;;;;;;14.93;75.04;100071.41;7359241;19;20028;-58
2022/10/27 02:43:59;;;;;;;0.00;0.00;;;;;;;14.96;75.30;100060.75;7360823;19;20026;-58
2022/10/27 02:46:24;;;;;;;0.10;0.10;;;;;;;15.00;75.22;100068.41;7357585;19;20010;-58
2022/10/27 02:48:49;;;;;;;0.00;0.00;;;;;;;15.04;75.22;100064.69;7361924;19;20010;-58
2022/10/27 02:51:15;;;;;;;0.00;0.00;;;;;;;15.09;75.22;100072.34;7357728;19;20013;-58
2022/10/27 02:53:40;;;;;;;0.00;0.00;;;;;;;15.12;75.36;100072.19;7360199;19;20017;-58
2022/10/27 02:56:07;;;;;;;0.10;0.10;;;;;;;15.15;74.94;100066.75;7360066;19;20608;-58
2022/10/27 02:58:33;;;;;;;0.03;0.03;;;;;;;15.18;75.17;100066.59;7358932;19;20027;-58
2022/10/27 03:00:58;;;;;;;0.00;0.00;;;;;;;15.22;74.86;100068.16;7357709;19;20014;-58
2022/10/27 03:03:24;;;;;;;0.00;0.00;;;;;;;15.19;75.12;100052.53;7358911;19;20616;-58
2022/10/27 03:05:49;;;;;;;0.10;0.10;;;;;;;15.28;75.25;100057.31;7347918;19;20026;-59
2022/10/27 03:08:15;;;;;;;0.00;0.00;;;;;;;15.32;74.88;100069.38;7359114;19;20014;-58
2022/10/27 03:10:42;;;;;;;0.05;0.05;;;;;;;15.27;74.60;100049.50;7359463;19;20014;-58
2022/10/27 03:13:07;;;;;;;0.00;0.00;;;;;;;15.40;74.85;100063.69;7360898;19;20010;-58
2022/10/27 03:15:33;;;;;;;0.10;0.10;;;;;;;15.45;75.05;100068.72;7362538;19;20433;-58
2022/10/27 03:17:58;;;;;;;0.00;0.00;;;;;;;15.48;74.76;100064.16;7356591;19;20425;-58
2022/10/27 03:20:24;;;;;;;0.00;0.00;;;;;;;15.52;74.46;100062.22;7353658;19;20018;-58
2022/10/27 03:22:49;;;;;;;0.03;0.03;;;;;;;15.56;74.40;100066.34;7358980;19;20010;-58
2022/10/27 03:25:15;;;;;;;0.03;0.03;;;;;;;15.60;74.68;100067.91;7356234;19;20516;-58
2022/10/27 03:27:42;;;;;;;0.00;0.00;;;;;;;15.64;75.09;100064.22;7361012;19;20011;-59
2022/10/27 03:30:16;;;;;;;0.10;0.10;;;;;;;15.66;74.73;100067.63;7360343;19;20023;-58
2022/10/27 03:32:47;;;;;;;0.00;0.00;;;;;;;15.63;75.11;100066.91;7361486;19;20011;-58
2022/10/27 03:35:13;;;;;;;0.08;0.08;;;;;;;15.46;75.54;100039.72;7357843;19;20014;-58
2022/10/27 03:37:38;;;;;;;0.10;0.10;;;;;;;15.51;75.66;100055.22;7359794;19;20034;-58
2022/10/27 03:40:04;;;;;;;0.05;0.05;;;;;;;15.48;75.70;100058.88;7361376;19;20104;-57
2022/10/27 03:42:29;;;;;;;0.10;0.10;;;;;;;15.44;75.75;100046.81;7356427;19;20006;-58
2022/10/27 03:44:55;;;;;;;0.10;0.10;;;;;;;15.22;76.17;100009.44;7358811;19;20014;-57
2022/10/27 03:47:20;;;;;;;0.00;0.00;;;;;;;15.36;76.51;100045.50;7360783;19;21724;-58
2022/10/27 03:49:46;;;;;;;0.10;0.10;;;;;;;15.34;76.90;100040.34;7357801;19;20015;-58
2022/10/27 03:52:11;;;;;;;0.00;0.00;;;;;;;15.31;76.92;100025.59;7361668;19;20016;-58
2022/10/27 03:54:37;;;;;;;0.00;0.00;;;;;;;15.26;77.07;100017.09;7357403;19;21060;-58
2022/10/27 03:57:02;;;;;;;0.00;0.00;;;;;;;15.28;77.29;100009.09;7361776;19;20020;-58
2022/10/27 03:59:27;;;;;;;0.03;0.03;;;;;;;15.11;77.38;99981.09;7358672;19;20548;-58
2022/10/27 04:01:53;;;;;;;0.10;0.10;;;;;;;15.25;77.75;100010.09;7360755;19;20030;-59
2022/10/27 04:04:18;;;;;;;0.00;0.00;;;;;;;15.21;77.85;100011.22;7360616;19;20010;-58
2022/10/27 04:06:43;;;;;;;0.10;0.10;;;;;;;15.23;77.88;100005.88;7359335;19;20457;-58
2022/10/27 04:09:09;;;;;;;0.10;0.10;;;;;;;15.21;78.09;99995.44;7359988;19;20018;-57
2022/10/27 04:11:34;;;;;;;0.10;0.10;;;;;;;15.22;78.03;99997.13;7358473;19;20796;-58
2022/10/27 04:14:00;;;;;;;0.08;0.08;;;;;;;15.23;77.83;99996.19;7359129;19;20135;-56
2022/10/27 04:16:25;;;;;;;0.00;0.00;;;;;;;15.21;77.59;99992.81;7359640;19;20007;-59
2022/10/27 04:18:50;;;;;;;0.00;0.00;;;;;;;15.22;78.06;99999.75;7358061;19;20070;-58
2022/10/27 04:21:16;;;;;;;0.10;0.10;;;;;;;15.22;77.52;99989.25;7356870;19;20110;-58
2022/10/27 04:23:42;;;;;;;0.10;0.10;;;;;;;15.19;77.78;99973.63;7356637;19;20033;-59
2022/10/27 04:26:07;;;;;;;0.10;0.10;;;;;;;15.24;78.03;99983.91;7359359;19;20058;-58
2022/10/27 04:28:33;;;;;;;0.03;0.03;;;;;;;15.23;78.32;99980.41;7357224;19;20036;-58
2022/10/27 04:30:58;;;;;;;0.00;0.00;;;;;;;15.24;77.74;99982.09;7360992;19;20022;-59
2022/10/27 04:33:24;;;;;;;0.00;0.00;;;;;;;15.26;77.43;99980.25;7357933;19;22304;-58
2022/10/27 04:35:49;;;;;;;0.05;0.05;;;;;;;15.17;77.86;99958.88;7358053;19;20014;-58
2022/10/27 04:38:15;;;;;;;0.00;0.00;;;;;;;15.27;78.13;99971.44;7363822;19;20015;-59
2022/10/27 04:40:40;;;;;;;0.10;0.10;;;;;;;15.28;77.72;99967.88;7366009;19;20015;-58
2022/10/27 04:43:06;;;;;;;0.00;0.00;;;;;;;15.23;77.67;99954.13;7365768;19;20382;-58
2022/10/27 04:45:32;;;;;;;0.00;0.00;;;;;;;15.22;77.98;99957.69;7364679;19;20074;-59
2022/10/27 04:47:58;;;;;;;0.10;0.10;;;;;;;15.34;77.98;99963.22;7365371;19;20011;-58
2022/10/27 04:50:23;;;;;;;0.08;0.08;;;;;;;15.14;77.99;99928.31;7364273;19;20760;-58
2022/10/27 04:53:00;;;;;;;0.00;0.00;;;;;;;15.39;77.90;99964.66;7362914;19;20074;-58
2022/10/27 04:55:26;;;;;;;0.10;0.10;;;;;;;15.40;78.02;99960.25;7364772;19;20022;-58
2022/10/27 04:57:52;;;;;;;0.10;0.10;;;;;;;15.40;78.40;99961.09;7361160;19;20022;-56
2022/10/27 05:00:18;;;;;;;0.10;0.10;;;;;;;15.42;78.05;99963.66;7366409;19;20010;-57
2022/10/27 05:02:43;;;;;;;0.10;0.10;;;;;;;15.44;77.91;99951.25;7363291;19;20033;-58
2022/10/27 05:05:09;;;;;;;0.00;0.00;;;;;;;15.40;77.76;99944.44;7366504;19;20006;-58
2022/10/27 05:07:34;;;;;;;0.10;0.10;;;;;;;15.42;77.97;99947.88;7362551;19;20037;-58
2022/10/27 05:10:00;;;;;;;0.10;0.10;;;;;;;15.49;77.75;99954.47;7366051;19;20011;-57
2022/10/27 05:12:25;;;;;;;0.10;0.10;;;;;;;15.51;77.60;99952.59;7365607;19;20018;-58
2022/10/27 05:14:50;;;;;;;0.00;0.00;;;;;;;15.41;77.88;99925.97;7363938;19;20722;-57
2022/10/27 05:17:16;;;;;;;0.00;0.00;;;;;;;15.50;78.09;99946.50;7362707;19;20007;-58
2022/10/27 05:19:41;;;;;;;0.00;0.00;;;;;;;15.51;77.87;99949.97;7364235;19;20010;-58
2022/10/27 05:22:07;;;;;;;0.10;0.10;;;;;;;15.51;78.10;99942.06;7364981;19;20015;-58
2022/10/27 05:24:32;;;;;;;0.10;0.10;;;;;;;15.51;78.25;99947.34;7363333;19;20018;-58
2022/10/27 05:26:57;;;;;;;0.00;0.00;;;;;;;15.51;77.73;99942.06;7361650;19;20066;-58
2022/10/27 05:29:24;;;;;;;0.05;0.05;;;;;;;15.50;77.65;99940.38;7362997;19;20018;-58
2022/10/27 05:31:49;;;;;;;0.10;0.10;;;;;;;15.49;77.94;99938.69;7362060;19;20815;-57
2022/10/27 05:34:15;;;;;;;0.10;0.10;;;;;;;15.47;77.88;99938.78;7363135;19;20010;-57
2022/10/27 05:36:40;;;;;;;0.00;0.00;;;;;;;15.47;78.45;99935.31;7363370;19;20651;-58
2022/10/27 05:39:06;;;;;;;0.00;0.00;;;;;;;15.47;78.22;99933.53;7363640;19;20014;-58
2022/10/27 05:41:31;;;;;;;0.10;0.10;;;;;;;15.47;78.31;99932.69;7360703;19;20018;-58
2022/10/27 05:43:56;;;;;;;0.05;0.05;;;;;;;15.45;78.17;99921.38;7364241;19;20018;-58
2022/10/27 05:46:22;;;;;;;0.10;0.10;;;;;;;15.46;78.67;99937.09;7362805;19;20048;-58
2022/10/27 05:48:47;;;;;;;0.00;0.00;;;;;;;15.42;78.43;99921.56;7363842;19;20480;-58
2022/10/27 05:51:12;;;;;;;0.10;0.10;;;;;;;15.46;78.60;99917.81;7363637;19;20020;-58
2022/10/27 05:53:38;;;;;;;0.00;0.00;;;;;;;15.46;78.58;99912.53;7363813;19;20413;-56
2022/10/27 05:56:03;;;;;;;0.00;0.00;;;;;;;15.46;78.80;99917.81;7363556;19;20014;-58
2022/10/27 05:58:29;;;;;;;0.00;0.00;;;;;;;15.44;78.95;99909.16;7353668;19;20064;-59
2022/10/27 06:00:58;;;;;;;0.00;0.00;;;;;;;15.34;78.79;99890.41;7362508;19;20021;-58
2022/10/27 06:03:24;;;;;;;0.00;0.00;;;;;;;15.31;78.73;99895.84;7360283;19;20010;-58
2022/10/27 06:05:50;;;;;;;0.10;0.10;;;;;;;15.43;78.84;99908.31;7359298;19;20006;-58
2022/10/27 06:08:16;;;;;;;0.00;0.00;;;;;;;15.44;78.74;99925.78;7362117;19;20010;-58
2022/10/27 06:10:44;;;;;;;0.00;0.00;;;;;;;15.45;78.57;99910.84;7361562;19;20030;-58
2022/10/27 06:13:12;;;;;;;0.00;0.00;;;;;;;15.43;79.00;99918.00;7359830;19;20368;-58
2022/10/27 06:15:37;;;;;;;0.00;0.00;;;;;;;15.43;78.96;99915.34;7356354;19;20041;-58
2022/10/27 06:18:03;;;;;;;0.00;0.00;;;;;;;15.40;78.72;99908.47;7363377;19;20010;-58
2022/10/27 06:20:29;;;;;;;0.10;0.10;;;;;;;15.43;79.00;99907.47;7364379;19;20015;-58
2022/10/27 06:22:54;;;;;;;0.00;0.00;;;;;;;15.43;78.72;99923.25;7362480;19;20010;-58
2022/10/27 06:25:20;;;;;;;0.00;0.00;;;;;;;15.42;78.52;99922.41;7361936;19;20050;-58
2022/10/27 06:27:45;;;;;;;0.00;0.00;;;;;;;15.45;78.61;99929.25;7360207;19;20006;-59
2022/10/27 06:30:11;;;;;;;0.00;0.00;;;;;;;15.46;78.88;99928.31;7358916;19;20022;-59
2022/10/27 06:32:40;;;;;;;0.08;0.08;;;;;;;15.48;78.80;99922.06;7364291;19;20767;-59
2022/10/27 06:35:07;;;;;;;0.00;0.00;;;;;;;15.49;78.87;99917.66;7361436;19;20358;-58
2022/10/27 06:37:32;;;;;;;0.10;0.10;;;;;;;15.47;78.82;99911.63;7364024;19;20043;-58
2022/10/27 06:39:58;;;;;;;0.00;0.00;;;;;;;15.54;79.18;99921.72;7362977;19;20014;-59
2022/10/27 06:42:23;;;;;;;0.08;0.08;;;;;;;15.53;79.10;99904.22;7363568;19;20022;-56
2022/10/27 06:44:49;;;;;;;0.00;0.00;;;;;;;15.59;78.96;99903.03;7364295;19;20027;-59
2022/10/27 06:47:15;;;;;;;0.10;0.10;;;;;;;15.56;78.74;99897.94;7362524;19;20978;-58
2022/10/27 06:49:40;;;;;;;0.00;0.00;;;;;;;15.64;78.79;99901.03;7362715;19;20015;-58
2022/10/27 06:52:06;;;;;;;0.00;0.00;;;;;;;15.62;78.58;99886.25;7365634;19;20055;-56
2022/10/27 06:54:31;;;;;;;0.05;0.05;;;;;;;15.70;78.41;99895.41;7352781;19;20861;-58
2022/10/27 06:56:56;;;;;;;0.10;0.10;;;;;;;15.73;78.84;99895.25;7364783;19;20050;-58
2022/10/27 06:59:22;;;;;;;0.00;0.00;;;;;;;15.77;78.46;99902.03;7358117;19;20037;-58
2022/10/27 07:01:47;;;;;;;0.00;0.00;;;;;;;15.80;78.56;99906.28;7362233;19;20043;-59
2022/10/27 07:04:13;;;;;;;0.00;0.00;;;;;;;15.81;78.56;99914.09;7361935;19;20465;-58
2022/10/27 07:06:38;;;;;;;0.10;0.10;;;;;;;15.83;78.69;99906.94;7363614;19;20048;-60
2022/10/27 07:09:04;;;;;;;0.00;0.00;;;;;;;15.81;78.91;99906.22;7364002;19;20015;-59
2022/10/27 07:11:29;;;;;;;0.00;0.00;;;;;;;15.87;78.75;99901.53;7360052;19;20022;-61
2022/10/27 07:13:55;;;;;;;0.10;0.10;;;;;;;15.89;78.86;99904.91;7364094;19;20439;-61
2022/10/27 07:16:21;;;;;;;0.00;0.00;;;;;;;15.88;78.92;99892.69;7364712;19;20006;-61
2022/10/27 07:18:46;;;;;;;0.00;0.00;;;;;;;15.88;78.83;99895.31;7355378;19;20657;-59
2022/10/27 07:21:12;;;;;;;0.00;0.00;;;;;;;15.95;79.04;99909.81;7364355;19;20025;-59
2022/10/27 07:23:38;;;;;;;0.00;0.00;;;;;;;15.97;78.95;99902.69;7355858;19;20010;-58
2022/10/27 07:26:03;;;;;;;0.10;0.10;;;;;;;15.98;78.74;99905.22;7362400;19;20013;-59
2022/10/27 07:28:29;;;;;;;0.10;0.10;;;;;;;16.01;78.56;99898.91;7358434;19;20008;-59
2022/10/27 07:30:55;;;;;;;0.10;0.10;;;;;;;15.98;78.77;99904.38;7363497;19;20098;-59
2022/10/27 07:33:20;;;;;;;0.10;0.10;;;;;;;16.05;78.60;99901.28;7359487;19;20010;-59
2022/10/27 07:35:50;;;;;;;0.10;0.10;;;;;;;16.04;78.58;99891.69;7362377;19;20010;-59
2022/10/27 07:38:16;;;;;;;0.05;0.05;;;;;;;16.09;79.04;99904.59;7361488;19;20014;-59
2022/10/27 07:40:41;;;;;;;0.00;0.00;;;;;;;16.12;78.88;99911.47;7361822;19;20076;-59
2022/10/27 07:43:08;;;;;;;0.10;0.10;;;;;;;16.14;78.94;99905.19;7361454;19;20035;-59
2022/10/27 07:45:38;;;;;;;0.00;0.00;;;;;;;16.16;78.63;99913.00;7361327;19;20026;-59
2022/10/27 07:48:05;;;;;;;0.10;0.10;;;;;;;16.17;78.54;99909.41;7363365;19;20031;-59
2022/10/27 07:50:32;;;;;;;0.10;0.10;;;;;;;16.10;78.63;99906.28;7363980;19;20666;-59
2022/10/27 07:52:58;;;;;;;;;;;;;;;16.27;77.16;99915.84;7363903;19;20010;-59
2022/10/27 07:55:26;;;;;;;0.10;0.10;;;;;;;16.25;77.91;99929.09;7362608;19;19954;-60
2022/10/27 07:57:58;;;;;;;0.00;0.00;;;;;;;16.29;77.50;99914.81;7360460;19;20013;-59
2022/10/27 08:00:24;;;;;;;0.03;0.03;;;;;;;16.28;78.21;99921.03;7362300;19;20098;-59
2022/10/27 08:02:49;;;;;;;0.10;0.10;;;;;;;16.27;78.13;99916.72;7363540;19;20030;-59
2022/10/27 08:05:14;;;;;;;0.10;0.10;;;;;;;16.29;78.58;99924.50;7361506;19;20018;-59
2022/10/27 08:07:40;;;;;;;0.08;0.08;;;;;;;16.30;78.67;99926.19;7363858;19;20894;-59
2022/10/27 08:10:06;;;;;;;0.10;0.10;;;;;;;16.30;78.54;99927.03;7361035;19;20033;-59
2022/10/27 08:12:31;;;;;;;0.10;0.10;;;;;;;16.33;78.76;99932.16;7362399;19;20039;-59
2022/10/27 08:14:57;;;;;;;0.10;0.10;;;;;;;16.37;78.34;99931.94;7363091;19;20006;-59
2022/10/27 08:17:25;;;;;;;0.08;0.08;;;;;;;16.32;78.46;99925.19;7361922;19;20010;-59
2022/10/27 08:19:50;;;;;;;0.00;0.00;;;;;;;16.42;78.70;99936.00;7362448;19;20010;-59
2022/10/27 08:22:16;;;;;;;0.10;0.10;;;;;;;16.45;78.55;99935.00;7360588;19;22117;-59
2022/10/27 08:24:42;;;;;;;0.08;0.08;;;;;;;16.50;78.02;99922.38;7362338;19;20065;-59
2022/10/27 08:27:07;;;;;;;0.10;0.10;;;;;;;16.52;78.37;99945.06;7361406;19;20045;-59
2022/10/27 08:29:33;;;;;;;0.10;0.10;;;;;;;16.55;78.50;99951.97;7361420;19;20780;-59
2022/10/27 08:31:58;;;;;;;0.10;0.10;;;;;;;16.59;77.83;99948.22;7361846;19;20018;-59
2022/10/27 08:34:24;;;;;;;0.08;0.08;;;;;;;16.61;77.90;99946.31;7362021;19;20021;-59
2022/10/27 08:36:49;;;;;;;0.10;0.10;;;;;;;16.63;77.55;99944.47;7361037;19;21123;-59
2022/10/27 08:39:14;;;;;;;0.10;0.10;;;;;;;16.65;77.93;99941.72;7361764;19;20013;-59
2022/10/27 08:41:55;;;;;;;0.10;0.10;;;;;;;16.67;77.73;99948.59;7360755;19;20017;-59
2022/10/27 08:44:52;;;;;;;0.00;0.00;;;;;;;16.67;78.16;99945.94;7362406;19;20014;-59
2022/10/27 08:47:21;;;;;;;0.00;0.00;;;;;;;16.72;78.10;99949.19;7256386;19;2004481;-59
2022/10/27 08:49:53;;;;;;;0.00;0.00;;;;;;;16.73;77.84;99945.63;7361971;19;20021;-59
2022/10/27 08:52:36;;;;;;;0.10;0.10;;;;;;;16.78;77.83;99954.13;7359606;19;20011;-60
2022/10/27 08:55:20;;;;;;;0.05;0.05;;;;;;;16.67;77.50;99935.41;7360545;19;20489;-59
2022/10/27 08:58:00;;;;;;;0.00;0.00;;;;;;;16.81;78.10;99959.19;7361307;19;20015;-59
2022/10/27 09:00:29;;;;;;;0.08;0.08;;;;;;;16.84;78.07;99966.06;7360543;19;20015;-59
2022/10/27 09:03:13;;;;;;;0.00;0.00;;;;;;;16.88;77.85;99964.06;7360963;19;20013;-59
2022/10/27 09:06:18;;;;;;;0.10;0.10;;;;;;;16.93;77.69;99967.28;7360250;19;20010;-59
2022/10/27 09:08:52;;;;;;;0.10;0.10;;;;;;;16.95;77.62;99962.78;7257790;19;2004427;-59
2022/10/27 09:11:45;;;;;;;0.10;0.10;;;;;;;16.96;77.50;99961.84;7360290;19;20040;-59
2022/10/27 09:14:26;;;;;;;0.10;0.10;;;;;;;16.99;77.74;99969.56;7257177;19;2004219;-59
2022/10/27 09:17:19;;;;;;;0.10;0.10;;;;;;;17.00;77.39;99969.47;7358292;19;20027;-59
2022/10/27 09:20:00;;;;;;;0.10;0.10;;;;;;;17.03;77.38;99966.66;7260995;19;2004465;-60
2022/10/27 09:22:29;;;;;;;0.10;0.10;;;;;;;17.03;77.70;99965.78;7359632;19;20007;-60
2022/10/27 09:25:18;;;;;;;0.00;0.00;;;;;;;17.08;77.61;99967.22;7368023;19;20014;-59
2022/10/27 09:27:47;;;;;;;0.10;0.10;;;;;;;17.02;77.68;99961.47;7364646;19;20671;-59
2022/10/27 09:30:13;;;;;;;0.10;0.10;;;;;;;17.06;77.60;99962.97;7367291;19;20073;-59
2022/10/27 09:32:42;;;;;;;0.00;0.00;;;;;;;17.09;77.93;99970.72;7365763;19;21019;-59
2022/10/27 09:35:20;;;;;;;0.10;0.10;;;;;;;17.12;77.49;99967.88;7366500;19;20018;-60
2022/10/27 09:37:46;;;;;;;0.00;0.00;;;;;;;17.13;77.78;99966.91;7366684;19;20078;-60
2022/10/27 09:40:14;;;;;;;0.00;0.00;;;;;;;17.19;77.51;99958.66;7367559;19;23079;-59
2022/10/27 09:42:40;;;;;;;0.10;0.10;;;;;;;17.14;77.57;99949.31;7366273;19;20594;-59
2022/10/27 09:45:15;;;;;;;0.10;0.10;;;;;;;17.29;77.86;99951.84;7366755;19;25282;-60
2022/10/27 09:47:43;;;;;;;0.03;0.03;;;;;;;17.30;77.92;99956.19;7365849;19;20594;-60
2022/10/27 09:50:28;;;;;;;0.03;0.03;;;;;;;17.39;77.51;99962.69;7366744;19;20073;-60
2022/10/27 09:52:54;;;;;;;0.00;0.00;;;;;;;17.37;77.29;99962.75;7361938;19;20486;-59
2022/10/27 09:55:20;;;;;;;0.00;0.00;;;;;;;17.41;77.79;99957.31;7361618;19;20010;-59
2022/10/27 09:57:47;;;;;;;0.00;0.00;;;;;;;17.44;77.63;99957.97;7358821;19;20014;-60
2022/10/27 10:00:15;;;;;;;0.03;0.03;;;;;;;17.51;77.12;99963.69;7359859;19;20019;-59
2022/10/27 10:03:01;;;;;;;0.10;0.10;;;;;;;17.57;77.06;99952.75;7358449;19;20085;-60
2022/10/27 10:05:46;;;;;;;0.10;0.10;;;;;;;17.61;77.02;99955.09;7358585;19;20038;-59
2022/10/27 10:08:26;;;;;;;0.10;0.10;;;;;;;17.64;76.83;99954.06;7366265;19;20019;-60
2022/10/27 10:11:00;;;;;;;0.10;0.10;;;;;;;17.66;77.18;99946.88;7364820;19;20019;-59
2022/10/27 10:13:28;;;;;;;0.05;0.05;;;;;;;17.62;76.92;99950.66;7364633;19;20014;-59
2022/10/27 10:16:16;;;;;;;0.10;0.10;;;;;;;17.73;76.58;99958.78;7361314;19;20018;-59
2022/10/27 10:19:02;;;;;;;0.10;0.10;;;;;;;17.71;76.83;99949.22;7361359;19;20032;-59
2022/10/27 10:21:44;;;;;;;0.08;0.08;;;;;;;17.77;76.82;99949.72;7359182;19;20011;-59
2022/10/27 10:24:32;;;;;;;0.10;0.10;;;;;;;17.80;76.45;99944.25;7363121;19;20331;-60
2022/10/27 10:27:00;;;;;;;0.10;0.10;;;;;;;17.80;76.83;99960.09;7359689;19;20040;-60
2022/10/27 10:29:32;;;;;;;0.10;0.10;;;;;;;17.85;76.84;99959.78;7359739;19;20772;-60
2022/10/27 10:32:11;;;;;;;0.00;0.00;;;;;;;17.88;77.00;99956.94;7366011;19;20027;-60
2022/10/27 10:34:36;;;;;;;0.00;0.00;;;;;;;17.86;76.82;99956.19;7355938;19;20355;-60
2022/10/27 10:37:02;;;;;;;0.10;0.10;;;;;;;17.87;76.81;99950.81;7360895;19;20026;-60
2022/10/27 10:39:32;;;;;;;0.10;0.10;;;;;;;17.96;77.20;99949.38;7362583;19;20085;-59
2022/10/27 10:42:13;;;;;;;0.00;0.00;;;;;;;18.00;76.89;99942.09;7364233;19;20007;-59
2022/10/27 10:44:39;;;;;;;0.00;0.00;;;;;;;17.84;76.84;99919.34;7363403;19;20026;-60
2022/10/27 10:47:18;;;;;;;0.10;0.10;;;;;;;18.06;76.83;99939.06;7361079;19;22281;-60
2022/10/27 10:49:49;;;;;;;0.10;0.10;;;;;;;18.13;76.41;99932.41;7363642;19;20011;-59
2022/10/27 10:52:19;;;;;;;0.10;0.10;;;;;;;18.02;76.47;99917.25;7361437;19;20022;-60
2022/10/27 10:54:45;;;;;;;0.10;0.10;;;;;;;18.18;76.92;99921.53;7360689;19;20039;-59
2022/10/27 10:57:33;;;;;;;0.10;0.10;;;;;;;18.27;76.83;99923.56;7364542;19;20462;-60
2022/10/27 10:59:59;;;;;;;0.08;0.08;;;;;;;18.26;76.66;99930.66;7262342;19;2004292;-60
2022/10/27 11:02:33;;;;;;;0.05;0.05;;;;;;;18.35;76.40;99940.59;7359170;19;20019;-60
2022/10/27 11:05:11;;;;;;;0.10;0.10;;;;;;;18.40;76.76;99940.31;7362370;19;20438;-59
2022/10/27 11:07:39;;;;;;;0.10;0.10;;;;;;;18.39;76.44;99936.78;7355788;19;20016;-59
2022/10/27 11:10:10;;;;;;;0.10;0.10;;;;;;;18.47;76.38;99949.50;7360660;19;20014;-59
2022/10/27 11:12:49;;;;;;;0.10;0.10;;;;;;;18.51;76.24;99944.88;7358364;19;20384;-60
2022/10/27 11:15:45;;;;;;;0.10;0.10;;;;;;;18.56;76.33;99953.34;7359158;19;20565;-60
2022/10/27 11:18:20;;;;;;;0.00;0.00;;;;;;;18.54;76.16;99955.22;7256087;19;2004467;-59
2022/10/27 11:20:51;;;;;;;0.10;0.10;;;;;;;18.58;76.23;99965.47;7355017;19;21517;-59
2022/10/27 11:23:22;;;;;;;0.10;0.10;;;;;;;18.57;76.15;99966.44;7357876;19;20021;-59
2022/10/27 11:25:48;;;;;;;0.10;0.10;;;;;;;18.56;75.97;99969.19;7357358;19;20006;-59
2022/10/27 11:28:28;;;;;;;0.10;0.10;;;;;;;18.60;75.94;99960.97;7356959;19;20766;-59
2022/10/27 11:31:02;;;;;;;0.10;0.10;;;;;;;18.63;76.49;99962.53;7356497;19;20027;-60
2022/10/27 11:33:43;;;;;;;0.10;0.10;;;;;;;18.67;76.18;99964.03;7353911;19;20061;-59
2022/10/27 11:36:19;;;;;;;0.10;0.10;;;;;;;18.72;76.40;99953.16;7357901;19;20018;-60
2022/10/27 11:38:44;;;;;;;0.10;0.10;;;;;;;18.75;76.54;99953.78;7356269;19;21154;-60
2022/10/27 11:41:25;;;;;;;0.10;0.10;;;;;;;18.85;76.90;99949.53;7356425;19;20110;-60